AMX100A MMGL-MMAA
Flight info
| Callsign | AMX100A |
|---|---|
| Flight time | 1h 0m |
| Altitude | 35000 |
| Route | EMIRI1B EMIRI DCT ZIH J1 AVURO AVURO1B |
| Aircraft | B738/M-SDE2E3FGHIRWXY/LB1 |
Departure
| Time | 2026-05-06 02:04 |
|---|---|
| Airport | Guadalajara International Airport (MMGL) |
Arrival
| Time | 2026-05-06 03:04 |
|---|---|
| Airport | General Juan N. Álvarez International Airport (MMAA) |
| Time | Latitude | Longitude | Altitude | Speed | Heading |
|---|---|---|---|---|---|
| 2026-05-06 01:17 | 20.52494 | -103.29469 | 5024 ft | 0 kts | 158° |
| 2026-05-06 01:23 | 20.52493 | -103.29469 | 5024 ft | 0 kts | 158° |
| 2026-05-06 01:27 | 20.52493 | -103.29468 | 5024 ft | 0 kts | 158° |
| 2026-05-06 01:31 | 20.52492 | -103.29468 | 5024 ft | 0 kts | 158° |
| 2026-05-06 01:39 | 20.52491 | -103.29468 | 5024 ft | 0 kts | 158° |
| 2026-05-06 01:43 | 20.52500 | -103.29472 | 5024 ft | 2 kts | 158° |
| 2026-05-06 01:43 | 20.52516 | -103.29478 | 5024 ft | 3 kts | 163° |
| 2026-05-06 01:43 | 20.52535 | -103.29481 | 5024 ft | 3 kts | 181° |
| 2026-05-06 01:44 | 20.52555 | -103.29477 | 5024 ft | 3 kts | 200° |
| 2026-05-06 01:44 | 20.52573 | -103.29467 | 5024 ft | 3 kts | 218° |
| 2026-05-06 01:44 | 20.52588 | -103.29451 | 5024 ft | 3 kts | 233° |
| 2026-05-06 01:44 | 20.52598 | -103.29432 | 5024 ft | 3 kts | 247° |
| 2026-05-06 01:45 | 20.52598 | -103.29431 | 5024 ft | 0 kts | 247° |
| 2026-05-06 01:48 | 20.52593 | -103.29440 | 5024 ft | 6 kts | 237° |
| 2026-05-06 01:49 | 20.52566 | -103.29482 | 5024 ft | 6 kts | 235° |
| 2026-05-06 01:49 | 20.52530 | -103.29538 | 5024 ft | 12 kts | 237° |
| 2026-05-06 01:49 | 20.52475 | -103.29609 | 5024 ft | 11 kts | 208° |
| 2026-05-06 01:49 | 20.52432 | -103.29605 | 5024 ft | 3 kts | 158° |
| 2026-05-06 01:50 | 20.52395 | -103.29590 | 5024 ft | 9 kts | 162° |
| 2026-05-06 01:50 | 20.52328 | -103.29571 | 5024 ft | 8 kts | 163° |
| 2026-05-06 01:50 | 20.52272 | -103.29549 | 5024 ft | 8 kts | 161° |
| 2026-05-06 01:50 | 20.52242 | -103.29534 | 5024 ft | 2 kts | 160° |
| 2026-05-06 01:51 | 20.52211 | -103.29524 | 5024 ft | 11 kts | 169° |
| 2026-05-06 01:51 | 20.52150 | -103.29508 | 5024 ft | 0 kts | 165° |
| 2026-05-06 01:51 | 20.52120 | -103.29498 | 5024 ft | 9 kts | 156° |
| 2026-05-06 01:51 | 20.52047 | -103.29467 | 5024 ft | 13 kts | 169° |
| 2026-05-06 01:52 | 20.51991 | -103.29479 | 5024 ft | 0 kts | 200° |
| 2026-05-06 01:52 | 20.51983 | -103.29483 | 5024 ft | 0 kts | 203° |
| 2026-05-06 01:52 | 20.51975 | -103.29487 | 5024 ft | 0 kts | 203° |
| 2026-05-06 01:53 | 20.51952 | -103.29499 | 5024 ft | 6 kts | 206° |
| 2026-05-06 01:54 | 20.51887 | -103.29525 | 5024 ft | 12 kts | 204° |
| 2026-05-06 01:54 | 20.51883 | -103.29527 | 5024 ft | 0 kts | 206° |
| 2026-05-06 01:55 | 20.51867 | -103.29535 | 5024 ft | 9 kts | 206° |
| 2026-05-06 01:55 | 20.51806 | -103.29552 | 5024 ft | 9 kts | 165° |
| 2026-05-06 01:56 | 20.51757 | -103.29487 | 5024 ft | 14 kts | 126° |
| 2026-05-06 01:56 | 20.51693 | -103.29387 | 5024 ft | 17 kts | 122° |
| 2026-05-06 01:56 | 20.51656 | -103.29321 | 5024 ft | 2 kts | 120° |
| 2026-05-06 01:56 | 20.51641 | -103.29296 | 5024 ft | 1 kts | 122° |
| 2026-05-06 01:57 | 20.51636 | -103.29286 | 5024 ft | 0 kts | 123° |
| 2026-05-06 01:58 | 20.51605 | -103.29242 | 5024 ft | 11 kts | 134° |
| 2026-05-06 01:58 | 20.51568 | -103.29234 | 5024 ft | 2 kts | 191° |
| 2026-05-06 01:58 | 20.51522 | -103.29259 | 5024 ft | 9 kts | 215° |
| 2026-05-06 01:58 | 20.51503 | -103.29269 | 5024 ft | 0 kts | 204° |
| 2026-05-06 01:59 | 20.51502 | -103.29269 | 5024 ft | 0 kts | 204° |
| 2026-05-06 02:00 | 20.51483 | -103.29277 | 5024 ft | 7 kts | 201° |
| 2026-05-06 02:00 | 20.51437 | -103.29311 | 5024 ft | 3 kts | 249° |
| 2026-05-06 02:00 | 20.51437 | -103.29326 | 5024 ft | 0 kts | 278° |
| 2026-05-06 02:03 | 20.51500 | -103.29495 | 5024 ft | 57 kts | 296° |
| 2026-05-06 02:03 | 20.51741 | -103.30077 | 5024 ft | 114 kts | 295° |
| 2026-05-06 02:03 | 20.52136 | -103.31016 | 5024 ft | 160 kts | 294° |
| 2026-05-06 02:03 | 20.52647 | -103.32152 | 5415 ft | 172 kts | 300° |
| 2026-05-06 02:04 | 20.53120 | -103.33332 | 6097 ft | 170 kts | 291° |
| 2026-05-06 02:04 | 20.53601 | -103.34516 | 6650 ft | 179 kts | 294° |
| 2026-05-06 02:04 | 20.54113 | -103.35729 | 7128 ft | 182 kts | 293° |
| 2026-05-06 02:04 | 20.54633 | -103.36963 | 7609 ft | 184 kts | 292° |
| 2026-05-06 02:05 | 20.55170 | -103.38241 | 8097 ft | 187 kts | 292° |
| 2026-05-06 02:05 | 20.55691 | -103.39498 | 8566 ft | 189 kts | 287° |
| 2026-05-06 02:05 | 20.55738 | -103.40875 | 9014 ft | 187 kts | 252° |
| 2026-05-06 02:05 | 20.55042 | -103.41995 | 9486 ft | 184 kts | 218° |
| 2026-05-06 02:06 | 20.53861 | -103.42475 | 9952 ft | 187 kts | 184° |
| 2026-05-06 02:06 | 20.52564 | -103.42136 | 10395 ft | 195 kts | 154° |
| 2026-05-06 02:06 | 20.51457 | -103.41287 | 10765 ft | 209 kts | 140° |
| 2026-05-06 02:06 | 20.50405 | -103.40095 | 11070 ft | 228 kts | 134° |
| 2026-05-06 02:07 | 20.49291 | -103.38775 | 11361 ft | 248 kts | 133° |
| 2026-05-06 02:07 | 20.48101 | -103.37345 | 11639 ft | 268 kts | 132° |
| 2026-05-06 02:07 | 20.46825 | -103.35811 | 11911 ft | 287 kts | 132° |
| 2026-05-06 02:07 | 20.45464 | -103.34173 | 12172 ft | 307 kts | 132° |
| 2026-05-06 02:08 | 20.44007 | -103.32422 | 12434 ft | 325 kts | 132° |
| 2026-05-06 02:08 | 20.42449 | -103.30550 | 12695 ft | 342 kts | 132° |
| 2026-05-06 02:08 | 20.40838 | -103.28614 | 12950 ft | 358 kts | 132° |
| 2026-05-06 02:08 | 20.39240 | -103.26696 | 13192 ft | 369 kts | 132° |
| 2026-05-06 02:09 | 20.37499 | -103.24606 | 13447 ft | 378 kts | 132° |
| 2026-05-06 02:09 | 20.35742 | -103.22498 | 13699 ft | 380 kts | 133° |
| 2026-05-06 02:09 | 20.33985 | -103.20391 | 13949 ft | 381 kts | 133° |
| 2026-05-06 02:09 | 20.32238 | -103.18297 | 14197 ft | 383 kts | 133° |
| 2026-05-06 02:10 | 20.30447 | -103.16150 | 14450 ft | 384 kts | 133° |
| 2026-05-06 02:10 | 20.28703 | -103.14060 | 14697 ft | 384 kts | 133° |
| 2026-05-06 02:10 | 20.26928 | -103.11919 | 14947 ft | 384 kts | 133° |
| 2026-05-06 02:10 | 20.25343 | -103.10023 | 15174 ft | 386 kts | 135° |
| 2026-05-06 02:11 | 20.23741 | -103.08113 | 15383 ft | 385 kts | 131° |
| 2026-05-06 02:11 | 20.22328 | -103.06392 | 15913 ft | 382 kts | 133° |
| 2026-05-06 02:11 | 20.20560 | -103.04274 | 16199 ft | 390 kts | 134° |
| 2026-05-06 02:11 | 20.18928 | -103.02320 | 16414 ft | 391 kts | 133° |
| 2026-05-06 02:12 | 20.17323 | -103.00400 | 16677 ft | 390 kts | 133° |
| 2026-05-06 02:12 | 20.16081 | -102.98937 | 16930 ft | 388 kts | 136° |
| 2026-05-06 02:12 | 20.14297 | -102.97020 | 17395 ft | 389 kts | 135° |
| 2026-05-06 02:12 | 20.12501 | -102.94892 | 17757 ft | 392 kts | 133° |
| 2026-05-06 02:13 | 20.10701 | -102.92671 | 18214 ft | 395 kts | 133° |
| 2026-05-06 02:13 | 20.08886 | -102.90441 | 18667 ft | 397 kts | 133° |
| 2026-05-06 02:13 | 20.07070 | -102.88230 | 19118 ft | 398 kts | 133° |
| 2026-05-06 02:13 | 20.05218 | -102.85989 | 19574 ft | 399 kts | 134° |
| 2026-05-06 02:14 | 20.03388 | -102.83784 | 20021 ft | 401 kts | 134° |
| 2026-05-06 02:14 | 20.01541 | -102.81564 | 20471 ft | 402 kts | 134° |
| 2026-05-06 02:14 | 19.99745 | -102.79407 | 20906 ft | 403 kts | 135° |
| 2026-05-06 02:14 | 19.98542 | -102.77964 | 21196 ft | 403 kts | 135° |
| 2026-05-06 02:15 | 19.96147 | -102.75105 | 21773 ft | 405 kts | 135° |
| 2026-05-06 02:15 | 19.94346 | -102.72951 | 22208 ft | 405 kts | 135° |
| 2026-05-06 02:15 | 19.92454 | -102.70699 | 22634 ft | 407 kts | 135° |
| 2026-05-06 02:15 | 19.90548 | -102.68433 | 22739 ft | 417 kts | 135° |
| 2026-05-06 02:16 | 19.88612 | -102.66131 | 22748 ft | 428 kts | 135° |
| 2026-05-06 02:16 | 19.86588 | -102.63724 | 22761 ft | 436 kts | 135° |
| 2026-05-06 02:16 | 19.84577 | -102.61334 | 22785 ft | 441 kts | 135° |
| 2026-05-06 02:16 | 19.82466 | -102.58972 | 22803 ft | 438 kts | 140° |
| 2026-05-06 02:17 | 19.80115 | -102.56943 | 22811 ft | 435 kts | 149° |
| 2026-05-06 02:17 | 19.77492 | -102.55347 | 22824 ft | 433 kts | 155° |
| 2026-05-06 02:17 | 19.74817 | -102.53904 | 22826 ft | 432 kts | 156° |
| 2026-05-06 02:17 | 19.72117 | -102.52507 | 22844 ft | 431 kts | 156° |
| 2026-05-06 02:18 | 19.69415 | -102.51122 | 23293 ft | 428 kts | 157° |
| 2026-05-06 02:18 | 19.66764 | -102.49772 | 23786 ft | 425 kts | 157° |
| 2026-05-06 02:18 | 19.64094 | -102.48419 | 24286 ft | 423 kts | 158° |
| 2026-05-06 02:18 | 19.61445 | -102.47082 | 24786 ft | 421 kts | 158° |
| 2026-05-06 02:19 | 19.58810 | -102.45757 | 25285 ft | 419 kts | 158° |
| 2026-05-06 02:19 | 19.56178 | -102.44437 | 25786 ft | 416 kts | 158° |
| 2026-05-06 02:19 | 19.53568 | -102.43130 | 26285 ft | 414 kts | 158° |
| 2026-05-06 02:19 | 19.50977 | -102.41834 | 26784 ft | 412 kts | 158° |
| 2026-05-06 02:20 | 19.45818 | -102.39255 | 27786 ft | 406 kts | 158° |
| 2026-05-06 02:20 | 19.43281 | -102.37986 | 28283 ft | 404 kts | 158° |
| 2026-05-06 02:20 | 19.40770 | -102.36732 | 28778 ft | 401 kts | 158° |
| 2026-05-06 02:21 | 19.38210 | -102.35454 | 29286 ft | 398 kts | 158° |
| 2026-05-06 02:21 | 19.35747 | -102.34225 | 29778 ft | 395 kts | 158° |
| 2026-05-06 02:21 | 19.33274 | -102.32990 | 30277 ft | 392 kts | 158° |
| 2026-05-06 02:21 | 19.30776 | -102.31744 | 30784 ft | 389 kts | 158° |
| 2026-05-06 02:22 | 19.29156 | -102.30936 | 31115 ft | 386 kts | 158° |
| 2026-05-06 02:22 | 19.25957 | -102.29341 | 31774 ft | 382 kts | 158° |
| 2026-05-06 02:22 | 19.24338 | -102.28535 | 32110 ft | 379 kts | 158° |
| 2026-05-06 02:22 | 19.21964 | -102.27351 | 32605 ft | 375 kts | 158° |
| 2026-05-06 02:23 | 19.18827 | -102.25790 | 32963 ft | 378 kts | 158° |
| 2026-05-06 02:23 | 19.17216 | -102.24989 | 33132 ft | 380 kts | 158° |
| 2026-05-06 02:23 | 19.14809 | -102.23794 | 33384 ft | 382 kts | 158° |
| 2026-05-06 02:23 | 19.12397 | -102.22600 | 33634 ft | 385 kts | 158° |
| 2026-05-06 02:24 | 19.09965 | -102.21396 | 33885 ft | 387 kts | 158° |
| 2026-05-06 02:24 | 19.07550 | -102.20201 | 34133 ft | 389 kts | 159° |
| 2026-05-06 02:24 | 19.05097 | -102.18987 | 34383 ft | 391 kts | 159° |
| 2026-05-06 02:24 | 19.02590 | -102.17748 | 34638 ft | 392 kts | 159° |
| 2026-05-06 02:25 | 19.00157 | -102.16544 | 34860 ft | 395 kts | 158° |
| 2026-05-06 02:25 | 18.95104 | -102.14043 | 34857 ft | 408 kts | 158° |
| 2026-05-06 02:26 | 18.89873 | -102.11447 | 34855 ft | 421 kts | 158° |
| 2026-05-06 02:26 | 18.84497 | -102.08780 | 34855 ft | 432 kts | 158° |
| 2026-05-06 02:27 | 18.78938 | -102.06024 | 34852 ft | 446 kts | 158° |
| 2026-05-06 02:27 | 18.73226 | -102.03192 | 34862 ft | 459 kts | 157° |
| 2026-05-06 02:28 | 18.67413 | -102.00312 | 34869 ft | 470 kts | 157° |
| 2026-05-06 02:28 | 18.61424 | -101.97349 | 34870 ft | 479 kts | 157° |
| 2026-05-06 02:29 | 18.55406 | -101.94376 | 34869 ft | 478 kts | 157° |
| 2026-05-06 02:29 | 18.49402 | -101.91413 | 34869 ft | 478 kts | 157° |
| 2026-05-06 02:30 | 18.43359 | -101.88434 | 34868 ft | 478 kts | 157° |
| 2026-05-06 02:30 | 18.37319 | -101.85459 | 34868 ft | 478 kts | 157° |
| 2026-05-06 02:31 | 18.31280 | -101.82487 | 34869 ft | 478 kts | 157° |
| 2026-05-06 02:31 | 18.25271 | -101.79531 | 34868 ft | 478 kts | 157° |
| 2026-05-06 02:32 | 18.19233 | -101.76564 | 34867 ft | 478 kts | 157° |
| 2026-05-06 02:32 | 18.13219 | -101.73611 | 34869 ft | 479 kts | 157° |
| 2026-05-06 02:33 | 18.07143 | -101.70630 | 34863 ft | 478 kts | 157° |
| 2026-05-06 02:33 | 18.05161 | -101.69657 | 34860 ft | 478 kts | 157° |
| 2026-05-06 02:34 | 17.95121 | -101.64736 | 34858 ft | 478 kts | 157° |
| 2026-05-06 02:34 | 17.89086 | -101.61781 | 34852 ft | 478 kts | 157° |
| 2026-05-06 02:35 | 17.83080 | -101.58836 | 34853 ft | 478 kts | 157° |
| 2026-05-06 02:35 | 17.77035 | -101.55880 | 34854 ft | 478 kts | 157° |
| 2026-05-06 02:36 | 17.70993 | -101.52927 | 34849 ft | 478 kts | 157° |
| 2026-05-06 02:36 | 17.64997 | -101.49983 | 34839 ft | 479 kts | 154° |
| 2026-05-06 02:36 | 17.62169 | -101.48103 | 34506 ft | 482 kts | 144° |
| 2026-05-06 02:37 | 17.59734 | -101.45694 | 34001 ft | 482 kts | 133° |
| 2026-05-06 02:37 | 17.57775 | -101.42843 | 33507 ft | 483 kts | 123° |
| 2026-05-06 02:37 | 17.56130 | -101.39769 | 33009 ft | 483 kts | 120° |
| 2026-05-06 02:37 | 17.54628 | -101.36606 | 32384 ft | 481 kts | 118° |
| 2026-05-06 02:38 | 17.53176 | -101.33429 | 31459 ft | 484 kts | 118° |
| 2026-05-06 02:38 | 17.51718 | -101.30287 | 30446 ft | 489 kts | 118° |
| 2026-05-06 02:38 | 17.50205 | -101.27075 | 29421 ft | 494 kts | 118° |
| 2026-05-06 02:38 | 17.48644 | -101.23793 | 28378 ft | 497 kts | 118° |
| 2026-05-06 02:39 | 17.47108 | -101.20584 | 27365 ft | 500 kts | 118° |
| 2026-05-06 02:39 | 17.45518 | -101.17281 | 26323 ft | 501 kts | 118° |
| 2026-05-06 02:39 | 17.43968 | -101.14061 | 25312 ft | 502 kts | 118° |
| 2026-05-06 02:39 | 17.42396 | -101.10798 | 24284 ft | 501 kts | 118° |
| 2026-05-06 02:40 | 17.40817 | -101.07528 | 23244 ft | 491 kts | 119° |
| 2026-05-06 02:40 | 17.39322 | -101.04442 | 22445 ft | 478 kts | 119° |
| 2026-05-06 02:40 | 17.37843 | -101.01393 | 22149 ft | 454 kts | 119° |
| 2026-05-06 02:40 | 17.36427 | -100.98470 | 21434 ft | 442 kts | 119° |
| 2026-05-06 02:41 | 17.35049 | -100.95628 | 20617 ft | 433 kts | 119° |
| 2026-05-06 02:41 | 17.33695 | -100.92841 | 19626 ft | 428 kts | 119° |
| 2026-05-06 02:41 | 17.32355 | -100.90089 | 18629 ft | 424 kts | 119° |
| 2026-05-06 02:41 | 17.31013 | -100.87334 | 17620 ft | 419 kts | 118° |
| 2026-05-06 02:42 | 17.29702 | -100.84648 | 16625 ft | 415 kts | 118° |
| 2026-05-06 02:42 | 17.28403 | -100.81987 | 15628 ft | 411 kts | 118° |
| 2026-05-06 02:42 | 17.27102 | -100.79322 | 14621 ft | 407 kts | 118° |
| 2026-05-06 02:42 | 17.25828 | -100.76711 | 13624 ft | 403 kts | 118° |
| 2026-05-06 02:43 | 17.24548 | -100.74094 | 12619 ft | 401 kts | 119° |
| 2026-05-06 02:43 | 17.23291 | -100.71524 | 11627 ft | 400 kts | 119° |
| 2026-05-06 02:43 | 17.22029 | -100.68945 | 10627 ft | 398 kts | 118° |
| 2026-05-06 02:43 | 17.20758 | -100.66359 | 9688 ft | 395 kts | 118° |
| 2026-05-06 02:44 | 17.19531 | -100.63864 | 9180 ft | 381 kts | 118° |
| 2026-05-06 02:44 | 17.18342 | -100.61450 | 8705 ft | 369 kts | 118° |
| 2026-05-06 02:44 | 17.17183 | -100.59095 | 8224 ft | 358 kts | 118° |
| 2026-05-06 02:44 | 17.16052 | -100.56800 | 7747 ft | 350 kts | 118° |
| 2026-05-06 02:45 | 17.14946 | -100.54556 | 7306 ft | 341 kts | 118° |
| 2026-05-06 02:45 | 17.13901 | -100.52434 | 7218 ft | 322 kts | 118° |
| 2026-05-06 02:45 | 17.12893 | -100.50376 | 7151 ft | 305 kts | 118° |
| 2026-05-06 02:45 | 17.11950 | -100.48456 | 7141 ft | 291 kts | 118° |
| 2026-05-06 02:46 | 17.11051 | -100.46627 | 7135 ft | 280 kts | 119° |
| 2026-05-06 02:46 | 17.10167 | -100.44830 | 7135 ft | 273 kts | 119° |
| 2026-05-06 02:46 | 17.09314 | -100.43098 | 7139 ft | 269 kts | 119° |
| 2026-05-06 02:46 | 17.08456 | -100.41355 | 7144 ft | 268 kts | 119° |
| 2026-05-06 02:47 | 17.07595 | -100.39606 | 7151 ft | 273 kts | 119° |
| 2026-05-06 02:47 | 17.06726 | -100.37844 | 7148 ft | 274 kts | 119° |
| 2026-05-06 02:47 | 17.05858 | -100.36084 | 7147 ft | 271 kts | 119° |
| 2026-05-06 02:47 | 17.04999 | -100.34342 | 7151 ft | 273 kts | 119° |
| 2026-05-06 02:48 | 17.04127 | -100.32577 | 7146 ft | 271 kts | 119° |
| 2026-05-06 02:48 | 17.03263 | -100.30824 | 7144 ft | 270 kts | 119° |
| 2026-05-06 02:48 | 17.02402 | -100.29078 | 7143 ft | 272 kts | 120° |
| 2026-05-06 02:48 | 17.01536 | -100.27327 | 7140 ft | 270 kts | 120° |
| 2026-05-06 02:49 | 17.00668 | -100.25574 | 7140 ft | 271 kts | 120° |
| 2026-05-06 02:49 | 16.99802 | -100.23828 | 7139 ft | 271 kts | 120° |
| 2026-05-06 02:49 | 16.98999 | -100.22021 | 7132 ft | 271 kts | 114° |
| 2026-05-06 02:49 | 16.98363 | -100.20210 | 7137 ft | 269 kts | 111° |
| 2026-05-06 02:50 | 16.97781 | -100.18364 | 7134 ft | 261 kts | 110° |
| 2026-05-06 02:50 | 16.97249 | -100.16596 | 7121 ft | 250 kts | 110° |
| 2026-05-06 02:50 | 16.96735 | -100.14895 | 7113 ft | 239 kts | 111° |
| 2026-05-06 02:50 | 16.96240 | -100.13265 | 7108 ft | 232 kts | 111° |
| 2026-05-06 02:51 | 16.95754 | -100.11664 | 7113 ft | 232 kts | 111° |
| 2026-05-06 02:51 | 16.95263 | -100.10034 | 7208 ft | 240 kts | 111° |
| 2026-05-06 02:51 | 16.94754 | -100.08362 | 7125 ft | 242 kts | 111° |
| 2026-05-06 02:51 | 16.94238 | -100.06681 | 7120 ft | 240 kts | 111° |
| 2026-05-06 02:52 | 16.93731 | -100.05051 | 7126 ft | 236 kts | 111° |
| 2026-05-06 02:52 | 16.93227 | -100.03439 | 7125 ft | 233 kts | 111° |
| 2026-05-06 02:52 | 16.92721 | -100.01811 | 7132 ft | 234 kts | 111° |
| 2026-05-06 02:52 | 16.92217 | -100.00184 | 7135 ft | 236 kts | 111° |
| 2026-05-06 02:53 | 16.91716 | -99.98563 | 7152 ft | 234 kts | 111° |
| 2026-05-06 02:53 | 16.91209 | -99.96926 | 7189 ft | 237 kts | 111° |
| 2026-05-06 02:53 | 16.90709 | -99.95313 | 7240 ft | 237 kts | 110° |
| 2026-05-06 02:53 | 16.90202 | -99.93673 | 7200 ft | 237 kts | 110° |
| 2026-05-06 02:54 | 16.89700 | -99.92047 | 7166 ft | 234 kts | 110° |
| 2026-05-06 02:54 | 16.89199 | -99.90434 | 7149 ft | 235 kts | 110° |
| 2026-05-06 02:54 | 16.88694 | -99.88813 | 7135 ft | 234 kts | 110° |
| 2026-05-06 02:54 | 16.88188 | -99.87194 | 7128 ft | 235 kts | 110° |
| 2026-05-06 02:55 | 16.87679 | -99.85564 | 7124 ft | 235 kts | 110° |
| 2026-05-06 02:55 | 16.87169 | -99.83940 | 7129 ft | 234 kts | 109° |
| 2026-05-06 02:55 | 16.86665 | -99.82348 | 7156 ft | 229 kts | 108° |
| 2026-05-06 02:55 | 16.86199 | -99.80772 | 7193 ft | 225 kts | 105° |
| 2026-05-06 02:56 | 16.85733 | -99.79227 | 7098 ft | 226 kts | 108° |
| 2026-05-06 02:56 | 16.85231 | -99.77640 | 6642 ft | 232 kts | 108° |
| 2026-05-06 02:56 | 16.84726 | -99.76047 | 6148 ft | 235 kts | 108° |
| 2026-05-06 02:56 | 16.84208 | -99.74409 | 5650 ft | 236 kts | 108° |
| 2026-05-06 02:57 | 16.83695 | -99.72781 | 5152 ft | 237 kts | 109° |
| 2026-05-06 02:57 | 16.83179 | -99.71142 | 4653 ft | 238 kts | 109° |
| 2026-05-06 02:57 | 16.82669 | -99.69520 | 4248 ft | 234 kts | 109° |
| 2026-05-06 02:57 | 16.82177 | -99.67958 | 4158 ft | 220 kts | 109° |
| 2026-05-06 02:58 | 16.81709 | -99.66465 | 4135 ft | 211 kts | 109° |
| 2026-05-06 02:58 | 16.81255 | -99.65019 | 4150 ft | 214 kts | 109° |
| 2026-05-06 02:58 | 16.80790 | -99.63534 | 4162 ft | 214 kts | 110° |
| 2026-05-06 02:58 | 16.80336 | -99.62087 | 4171 ft | 214 kts | 110° |
| 2026-05-06 02:59 | 16.79870 | -99.60607 | 4176 ft | 213 kts | 110° |
| 2026-05-06 02:59 | 16.79410 | -99.59148 | 4188 ft | 213 kts | 110° |
| 2026-05-06 02:59 | 16.78819 | -99.57727 | 4168 ft | 214 kts | 131° |
| 2026-05-06 02:59 | 16.78070 | -99.57082 | 4185 ft | 211 kts | 150° |
| 2026-05-06 03:00 | 16.76297 | -99.56504 | 4125 ft | 212 kts | 185° |
| 2026-05-06 03:00 | 16.74891 | -99.56946 | 3751 ft | 215 kts | 207° |
| 2026-05-06 03:00 | 16.73500 | -99.57547 | 3306 ft | 217 kts | 204° |
| 2026-05-06 03:00 | 16.72131 | -99.58165 | 2852 ft | 215 kts | 217° |
| 2026-05-06 03:01 | 16.71261 | -99.59364 | 2625 ft | 199 kts | 249° |
| 2026-05-06 03:01 | 16.71136 | -99.60713 | 2548 ft | 183 kts | 278° |
| 2026-05-06 03:01 | 16.71458 | -99.62010 | 2192 ft | 188 kts | 289° |
| 2026-05-06 03:01 | 16.71880 | -99.63311 | 1723 ft | 188 kts | 290° |
| 2026-05-06 03:02 | 16.72291 | -99.64557 | 1489 ft | 178 kts | 290° |
| 2026-05-06 03:02 | 16.72688 | -99.65765 | 1454 ft | 174 kts | 290° |
| 2026-05-06 03:02 | 16.72950 | -99.66570 | 1463 ft | 175 kts | 290° |
| 2026-05-06 03:02 | 16.73449 | -99.68132 | 1475 ft | 167 kts | 290° |
| 2026-05-06 03:03 | 16.73811 | -99.69278 | 1477 ft | 164 kts | 290° |
| 2026-05-06 03:03 | 16.74175 | -99.70417 | 1008 ft | 172 kts | 290° |
| 2026-05-06 03:03 | 16.74578 | -99.71652 | 433 ft | 176 kts | 287° |
| 2026-05-06 03:03 | 16.74917 | -99.72826 | 167 ft | 164 kts | 288° |
| 2026-05-06 03:04 | 16.75253 | -99.73887 | 22 ft | 146 kts | 289° |
| 2026-05-06 03:04 | 16.75435 | -99.74500 | 21 ft | 108 kts | 288° |
| 2026-05-06 03:04 | 16.75578 | -99.74978 | 21 ft | 0 kts | 304° |
| 2026-05-06 03:04 | 16.75580 | -99.74983 | 21 ft | 8 kts | 297° |
| 2026-05-06 03:05 | 16.75610 | -99.75039 | 21 ft | 15 kts | 310° |
| 2026-05-06 03:05 | 16.75677 | -99.75086 | 21 ft | 10 kts | 332° |
| 2026-05-06 03:05 | 16.75749 | -99.75123 | 21 ft | 12 kts | 335° |
| 2026-05-06 03:05 | 16.75830 | -99.75155 | 21 ft | 17 kts | 339° |
| 2026-05-06 03:06 | 16.75894 | -99.75272 | 21 ft | 20 kts | 286° |
| 2026-05-06 03:06 | 16.75937 | -99.75409 | 21 ft | 18 kts | 290° |
| 2026-05-06 03:06 | 16.75972 | -99.75505 | 21 ft | 1 kts | 309° |
| 2026-05-06 03:06 | 16.76026 | -99.75530 | 21 ft | 14 kts | 14° |
| 2026-05-06 03:07 | 16.76059 | -99.75506 | 21 ft | 7 kts | 33° |
| 2026-05-06 03:07 | 16.76123 | -99.75481 | 21 ft | 9 kts | 12° |
| 2026-05-06 03:07 | 16.76144 | -99.75475 | 21 ft | 0 kts | 10° |